AGS weather

San Agustin Airport
San Ignacio, Sonora, Mexico

Public forecast

Using degrees Celsius for public forecast. Weather courtesy of forecast.io.

Closest aviation weather report (METAR) to San Agustin Airport

Report is more than 2 hours old.

Closest report is Ciudad Obregón International Airport, 21.4 nm (39.6 km) E. Retrieved 2020/07/02 00:40 UTC (6 hours ago):

MMCN 020040Z 21010KT 10SM FEW100 33/18 A2975 RMK 8/030 HZY TCU NE

Closest aviation forecast (TAF) to San Agustin Airport

Closest forecast is Ciudad Obregón International Airport, 21.4 nm (39.6 km) E. Retrieved 2020/07/02 06:57 UTC (0 seconds ago):

TAF TAF MMCN 020454Z 0206/0306 24005KT P6SM SCT100 FM020600 14005KT P6SM SCT090 FM021200 14005KT P6SM BKN020 SCT100 FM021800 24010KT P6SM SCT030 SCT100 FM030300 24005KT P6SM SCT030 SCT100